Time;durP1;ratioP1;P1;durP2;ratioP2;P2;SDS_P1;SDS_P2;PMS_P1;PMS_P2;Temp;Humidity;BMP_temperature;BMP_pressure;BME280_temperature;BME280_humidity;BME280_pressure;Samples;Min_cycle;Max_cycle;Signal;HPM_P1;HPM_P2
2023/11/06 00:01:20;;;;;;;36.50;33.40;;;10.20;94.10;;;;;;5057043;28;20169;-87
2023/11/06 00:03:45;;;;;;;36.10;33.50;;;10.20;94.30;;;;;;5056953;28;20172;-87
2023/11/06 00:06:11;;;;;;;38.00;34.80;;;10.20;94.30;;;;;;5039037;28;20199;-88
2023/11/06 00:08:37;;;;;;;36.87;34.33;;;10.20;94.40;;;;;;5056755;28;20238;-89
2023/11/06 00:11:03;;;;;;;60.47;56.17;;;10.20;94.50;;;;;;5038772;28;20176;-88
2023/11/06 00:13:28;;;;;;;62.47;57.97;;;10.20;94.50;;;;;;5056539;28;20176;-88
2023/11/06 00:15:54;;;;;;;63.67;58.67;;;10.20;94.40;;;;;;5038784;28;20204;-88
2023/11/06 00:18:20;;;;;;;61.07;56.23;;;10.20;94.30;;;;;;5038668;28;20570;-89
2023/11/06 00:20:45;;;;;;;61.57;56.30;;;10.20;94.30;;;;;;5038632;28;20182;-88
2023/11/06 00:23:11;;;;;;;58.40;54.30;;;10.20;94.20;;;;;;5056439;28;20546;-88
2023/11/06 00:25:37;;;;;;;62.03;56.60;;;10.20;93.70;;;;;;5038500;28;20585;-88
2023/11/06 00:28:03;;;;;;;55.47;51.77;;;10.30;93.20;;;;;;5056639;28;20255;-89
2023/11/06 00:30:28;;;;;;;57.63;52.93;;;10.30;92.90;;;;;;5056278;28;20256;-88
2023/11/06 00:32:54;;;;;;;56.53;52.77;;;10.30;92.90;;;;;;5038414;28;20553;-88
2023/11/06 00:35:20;;;;;;;53.67;50.07;;;10.30;92.80;;;;;;5056227;28;20196;-88
2023/11/06 00:37:45;;;;;;;55.07;51.03;;;10.20;92.70;;;;;;5056160;28;20654;-89
2023/11/06 00:40:11;;;;;;;57.63;53.10;;;10.20;92.70;;;;;;5056144;28;20179;-87
2023/11/06 00:42:36;;;;;;;56.53;52.00;;;10.20;92.60;;;;;;5038378;28;20253;-88
2023/11/06 00:45:04;;;;;;;55.97;52.03;;;10.20;92.60;;;;;;5038575;28;20638;-87
2023/11/06 00:47:29;;;;;;;37.13;33.20;;;10.20;92.40;;;;;;5056068;28;20301;-88
2023/11/06 00:49:55;;;;;;;35.40;31.87;;;10.20;92.30;;;;;;5038115;28;20266;-87
2023/11/06 00:52:21;;;;;;;34.43;30.80;;;10.20;92.10;;;;;;5055875;28;20268;-88
2023/11/06 00:54:46;;;;;;;55.00;50.60;;;10.20;91.90;;;;;;5056408;28;20183;-90
2023/11/06 00:57:12;;;;;;;57.40;53.07;;;10.20;92.00;;;;;;5038137;28;20204;-90
2023/11/06 00:59:38;;;;;;;33.70;30.60;;;10.20;91.90;;;;;;5037570;28;20226;-88
2023/11/06 01:02:04;;;;;;;33.90;30.70;;;10.20;91.70;;;;;;5055635;28;20172;-89
2023/11/06 01:04:29;;;;;;;48.93;44.50;;;10.20;91.70;;;;;;5038460;28;20654;-88
2023/11/06 01:06:55;;;;;;;51.40;47.57;;;10.20;91.70;;;;;;5055553;28;20202;-88
2023/11/06 01:09:21;;;;;;;52.90;49.00;;;10.20;91.30;;;;;;5037779;28;20194;-88
2023/11/06 01:11:49;;;;;;;30.17;27.73;;;10.30;91.00;;;;;;5055734;28;20589;-88
2023/11/06 01:14:16;;;;;;;31.57;28.87;;;10.30;91.00;;;;;;5055387;28;20172;-88
2023/11/06 01:16:42;;;;;;;29.77;27.30;;;10.20;91.10;;;;;;5037461;28;20239;-88
2023/11/06 01:19:08;;;;;;;31.37;28.57;;;10.30;90.60;;;;;;5037624;28;20176;-88
2023/11/06 01:21:34;;;;;;;31.47;28.73;;;10.30;90.40;;;;;;5055286;28;20239;-88
2023/11/06 01:23:59;;;;;;;32.57;29.30;;;10.30;90.40;;;;;;5055233;28;20175;-88
2023/11/06 01:26:25;;;;;;;31.93;28.90;;;10.30;90.40;;;;;;5055407;28;20719;-87
2023/11/06 01:28:50;;;;;;;31.50;28.80;;;10.20;90.50;;;;;;5055135;28;20644;-88
2023/11/06 01:31:17;;;;;;;29.63;27.43;;;10.20;90.40;;;;;;5055435;28;20252;-88
2023/11/06 01:33:43;;;;;;;30.37;27.67;;;10.10;90.70;;;;;;5037237;28;20206;-88
2023/11/06 01:36:09;;;;;;;29.87;27.53;;;10.20;90.70;;;;;;5054935;28;20196;-87
2023/11/06 01:38:36;;;;;;;26.87;24.60;;;10.10;90.70;;;;;;5036998;28;20204;-88
2023/11/06 01:41:03;;;;;;;25.53;23.20;;;10.10;90.50;;;;;;5036970;28;20168;-88
2023/11/06 01:43:28;;;;;;;27.57;25.40;;;10.10;90.20;;;;;;5037522;28;20176;-88
2023/11/06 01:45:54;;;;;;;28.17;25.70;;;10.10;90.10;;;;;;5054848;28;20198;-87
2023/11/06 01:48:22;;;;;;;28.20;26.03;;;10.10;90.10;;;;;;5037083;28;20180;-88
2023/11/06 01:50:48;;;;;;;29.77;26.53;;;10.00;90.20;;;;;;5036896;28;20175;-88
2023/11/06 01:53:15;;;;;;;31.57;25.57;;;10.00;90.10;;;;;;5054743;28;20187;-88
2023/11/06 01:55:45;;;;;;;28.03;25.87;;;10.00;89.90;;;;;;5036883;28;20253;-87
2023/11/06 01:58:12;;;;;;;50.27;46.30;;;10.00;90.10;;;;;;5036871;28;20340;-88
2023/11/06 02:00:39;;;;;;;48.23;44.47;;;9.90;90.40;;;;;;5054556;28;20168;-88
2023/11/06 02:03:07;;;;;;;46.20;42.90;;;9.90;90.40;;;;;;5036884;28;20639;-87
2023/11/06 02:05:37;;;;;;;46.70;43.50;;;9.90;90.50;;;;;;5054405;28;20208;-87
2023/11/06 02:08:05;;;;;;;46.20;42.67;;;9.80;90.60;;;;;;5054109;28;20232;-88
2023/11/06 02:10:31;;;;;;;43.83;40.80;;;9.80;90.60;;;;;;5035529;28;20266;-89
2023/11/06 02:12:57;;;;;;;46.20;42.93;;;9.80;90.60;;;;;;5054359;28;20172;-87
2023/11/06 02:15:26;;;;;;;47.60;44.03;;;9.80;90.70;;;;;;5036569;28;20224;-87
2023/11/06 02:17:52;;;;;;;47.53;43.97;;;9.80;90.90;;;;;;5036422;28;20203;-88
2023/11/06 02:20:17;;;;;;;43.27;39.77;;;9.80;90.80;;;;;;5054160;28;20168;-88
2023/11/06 02:22:43;;;;;;;45.07;41.67;;;9.80;90.60;;;;;;5054572;28;20214;-88
2023/11/06 02:25:10;;;;;;;46.77;43.13;;;9.80;90.60;;;;;;5036361;28;20746;-88
2023/11/06 02:27:37;;;;;;;46.97;43.00;;;9.70;90.70;;;;;;5036408;28;20180;-88
2023/11/06 02:30:03;;;;;;;45.07;42.07;;;9.70;90.50;;;;;;5054171;28;20184;-87
2023/11/06 02:32:29;;;;;;;50.20;46.80;;;9.70;90.60;;;;;;5036458;28;20740;-88
2023/11/06 02:34:55;;;;;;;28.13;25.63;;;9.60;90.70;;;;;;5053932;28;20172;-88
2023/11/06 02:37:20;;;;;;;26.83;24.67;;;9.60;90.80;;;;;;5053917;28;20710;-87
2023/11/06 02:39:46;;;;;;;33.50;31.10;;;9.60;90.70;;;;;;5036134;28;20258;-88
2023/11/06 02:42:11;;;;;;;45.83;41.87;;;9.70;90.60;;;;;;5035983;28;20187;-88
2023/11/06 02:44:37;;;;;;;48.23;44.77;;;9.60;90.50;;;;;;5053923;28;20176;-88
2023/11/06 02:47:03;;;;;;;25.73;23.87;;;9.60;90.50;;;;;;5035920;28;20307;-88
2023/11/06 02:49:28;;;;;;;28.83;26.30;;;9.70;90.40;;;;;;5035969;28;20176;-87
2023/11/06 02:51:54;;;;;;;45.83;41.93;;;9.70;90.40;;;;;;5035933;28;20560;-88
2023/11/06 02:54:22;;;;;;;45.80;42.43;;;9.70;90.50;;;;;;5054061;28;20186;-88
2023/11/06 02:56:48;;;;;;;49.87;45.80;;;9.60;90.40;;;;;;5053442;28;20234;-88
2023/11/06 02:59:14;;;;;;;28.87;26.30;;;9.60;90.40;;;;;;5053736;28;20207;-87
2023/11/06 03:01:40;;;;;;;27.53;25.50;;;9.50;90.50;;;;;;5053782;28;20198;-88
2023/11/06 03:04:06;;;;;;;29.73;26.73;;;9.60;90.40;;;;;;5035976;28;20176;-87
2023/11/06 03:06:31;;;;;;;27.37;24.90;;;9.60;90.30;;;;;;5053615;28;20196;-87
2023/11/06 03:08:57;;;;;;;26.53;24.00;;;9.50;90.40;;;;;;5035697;28;20179;-88
2023/11/06 03:11:23;;;;;;;26.57;24.27;;;9.50;90.40;;;;;;5053857;28;20226;-89
2023/11/06 03:13:49;;;;;;;27.30;24.83;;;9.50;90.40;;;;;;5053490;28;20227;-87
2023/11/06 03:16:17;;;;;;;29.13;26.00;;;9.40;90.40;;;;;;5053436;28;20192;-88
2023/11/06 03:18:44;;;;;;;28.00;25.83;;;9.30;90.50;;;;;;5035623;28;20196;-87
2023/11/06 03:21:10;;;;;;;24.30;22.33;;;9.40;90.60;;;;;;5053178;28;20176;-88
2023/11/06 03:23:36;;;;;;;25.90;23.57;;;9.40;90.60;;;;;;5035506;28;20650;-88
2023/11/06 03:26:03;;;;;;;25.87;23.83;;;9.30;90.70;;;;;;5035466;28;20572;-88
2023/11/06 03:28:28;;;;;;;24.77;22.90;;;9.50;90.70;;;;;;5053299;28;20172;-88
2023/11/06 03:30:54;;;;;;;26.30;24.10;;;9.50;90.60;;;;;;5053245;28;20175;-87
2023/11/06 03:33:19;;;;;;;26.33;23.90;;;9.50;90.50;;;;;;5035516;28;20192;-88
2023/11/06 03:35:45;;;;;;;26.13;24.13;;;9.40;90.70;;;;;;5035380;28;20191;-88
2023/11/06 03:38:10;;;;;;;26.50;24.13;;;9.40;90.70;;;;;;5053028;28;20196;-88
2023/11/06 03:40:36;;;;;;;26.33;24.23;;;9.40;90.70;;;;;;5053452;28;20237;-88
2023/11/06 03:43:02;;;;;;;26.93;24.70;;;9.40;90.80;;;;;;5053072;28;20191;-88
2023/11/06 03:45:28;;;;;;;42.73;39.60;;;9.30;90.80;;;;;;5053133;28;20187;-88
2023/11/06 03:47:53;;;;;;;41.30;38.17;;;9.30;90.90;;;;;;5035319;28;20184;-88
2023/11/06 03:50:19;;;;;;;43.27;39.97;;;9.30;90.80;;;;;;5035345;28;20175;-88
2023/11/06 03:52:45;;;;;;;42.37;39.17;;;9.20;90.90;;;;;;5035339;28;20237;-88
2023/11/06 03:55:13;;;;;;;41.33;38.53;;;9.20;91.00;;;;;;5035054;28;20750;-89
2023/11/06 03:57:38;;;;;;;41.80;38.57;;;9.20;91.10;;;;;;5052884;28;20187;-88
2023/11/06 04:00:06;;;;;;;38.63;36.07;;;9.20;91.20;;;;;;5052983;28;20667;-88
2023/11/06 04:02:31;;;;;;;40.53;37.63;;;9.20;91.00;;;;;;5035218;28;20176;-90
2023/11/06 04:04:57;;;;;;;39.33;36.30;;;9.20;91.00;;;;;;5052998;28;20245;-88
2023/11/06 04:07:22;;;;;;;38.70;35.77;;;9.10;91.10;;;;;;5035168;28;20179;-88
2023/11/06 04:09:48;;;;;;;41.03;38.20;;;9.10;91.30;;;;;;5052882;28;20172;-88
2023/11/06 04:12:13;;;;;;;40.93;38.03;;;9.10;91.20;;;;;;5052821;28;20172;-87
2023/11/06 04:14:39;;;;;;;42.13;39.17;;;9.10;91.10;;;;;;5052880;28;20178;-88
2023/11/06 04:17:05;;;;;;;40.00;37.23;;;9.10;91.10;;;;;;5053139;28;20698;-87
2023/11/06 04:19:30;;;;;;;46.00;42.43;;;9.00;91.10;;;;;;5034866;28;20336;-88
2023/11/06 04:21:56;;;;;;;51.67;47.93;;;9.00;91.20;;;;;;5034988;28;20173;-86
2023/11/06 04:24:21;;;;;;;28.37;25.97;;;9.00;91.20;;;;;;5035375;28;20175;-88
2023/11/06 04:26:47;;;;;;;30.13;27.77;;;9.00;91.30;;;;;;5034964;28;20189;-88
2023/11/06 04:29:12;;;;;;;48.83;45.23;;;8.90;91.40;;;;;;5052743;28;20208;-88
2023/11/06 04:31:39;;;;;;;45.43;42.40;;;8.90;91.40;;;;;;5052688;28;20172;-87
2023/11/06 04:34:04;;;;;;;52.63;49.00;;;8.90;91.50;;;;;;5054378;28;20164;-89
2023/11/06 04:36:30;;;;;;;29.83;27.43;;;8.90;91.50;;;;;;5038374;28;20282;-88
2023/11/06 04:38:55;;;;;;;30.30;28.10;;;8.90;91.50;;;;;;5056408;28;20186;-88
2023/11/06 04:41:21;;;;;;;47.07;43.77;;;8.90;91.50;;;;;;5038615;28;20191;-89
2023/11/06 04:43:46;;;;;;;45.50;42.20;;;8.80;91.40;;;;;;5038441;28;20235;-87
2023/11/06 04:46:12;;;;;;;30.50;28.07;;;8.90;91.50;;;;;;5038310;28;20188;-87
2023/11/06 04:48:37;;;;;;;27.87;25.70;;;8.80;91.30;;;;;;5055981;28;20181;-88
2023/11/06 04:51:03;;;;;;;28.47;26.27;;;8.80;91.40;;;;;;5038353;28;20250;-88
2023/11/06 04:53:28;;;;;;;40.20;37.07;;;8.80;91.40;;;;;;5056082;28;20176;-87
2023/11/06 04:55:54;;;;;;;45.10;41.90;;;8.70;91.50;;;;;;5055932;28;20196;-87
2023/11/06 04:58:20;;;;;;;27.23;25.00;;;8.70;91.70;;;;;;5056126;28;20291;-87
2023/11/06 05:00:46;;;;;;;30.13;27.50;;;8.70;91.70;;;;;;5038065;28;20211;-89
2023/11/06 05:03:11;;;;;;;29.83;27.73;;;8.70;91.70;;;;;;5038047;28;20682;-89
2023/11/06 05:05:37;;;;;;;27.63;25.83;;;8.70;91.70;;;;;;5055778;28;20267;-89
2023/11/06 05:08:03;;;;;;;26.73;24.57;;;8.70;91.80;;;;;;5038049;28;20732;-88
2023/11/06 05:10:29;;;;;;;30.97;28.63;;;8.70;91.70;;;;;;5038201;28;20554;-88
2023/11/06 05:12:54;;;;;;;32.23;29.00;;;8.70;91.70;;;;;;5055649;28;20177;-89
2023/11/06 05:15:20;;;;;;;29.37;27.33;;;8.70;91.70;;;;;;5055621;28;20200;-88
2023/11/06 05:17:46;;;;;;;30.47;27.87;;;8.70;91.80;;;;;;5038627;28;20192;-87
2023/11/06 05:20:12;;;;;;;32.33;29.93;;;8.70;91.90;;;;;;5056067;28;20659;-87
2023/11/06 05:22:39;;;;;;;32.17;29.47;;;8.70;91.90;;;;;;5037708;28;20184;-87
2023/11/06 05:25:05;;;;;;;32.13;29.37;;;8.70;91.90;;;;;;5055524;28;20195;-88
2023/11/06 05:27:31;;;;;;;31.77;29.43;;;8.70;91.90;;;;;;5037618;28;20187;-88
2023/11/06 05:29:57;;;;;;;32.07;29.47;;;8.70;91.90;;;;;;5055468;28;20176;-88
2023/11/06 05:32:22;;;;;;;30.87;28.33;;;8.70;92.00;;;;;;5055394;28;20251;-88
2023/11/06 05:34:48;;;;;;;32.40;29.90;;;8.70;92.10;;;;;;5055283;28;20651;-88
2023/11/06 05:37:13;;;;;;;33.70;30.83;;;8.70;92.10;;;;;;5037197;28;20237;-88
2023/11/06 05:39:45;;;;;;;32.93;30.17;;;8.70;92.10;;;;;;5055285;28;20187;-88
2023/11/06 05:42:11;;;;;;;51.47;47.77;;;8.70;92.30;;;;;;5055184;28;20687;-88
2023/11/06 05:44:39;;;;;;;52.67;48.40;;;8.80;92.20;;;;;;5038061;28;20175;-88
2023/11/06 05:47:04;;;;;;;51.47;47.47;;;8.70;92.30;;;;;;5037138;28;20192;-88
2023/11/06 05:49:30;;;;;;;50.23;46.27;;;8.80;92.40;;;;;;5037194;28;20187;-88
2023/11/06 05:51:55;;;;;;;49.63;46.00;;;8.80;92.30;;;;;;5037103;28;20551;-88
2023/11/06 05:54:21;;;;;;;49.33;45.60;;;8.80;92.30;;;;;;5054963;28;20172;-88
2023/11/06 05:56:46;;;;;;;52.10;48.20;;;8.80;92.50;;;;;;5037004;28;20200;-88
2023/11/06 05:59:12;;;;;;;51.77;47.63;;;8.80;92.50;;;;;;5055169;28;20183;-88
2023/11/06 06:01:37;;;;;;;51.00;47.23;;;8.90;92.50;;;;;;5054815;28;20201;-88
2023/11/06 06:04:03;;;;;;;51.27;47.63;;;8.90;92.40;;;;;;5036772;28;20176;-88
2023/11/06 06:06:28;;;;;;;51.17;47.50;;;8.90;92.40;;;;;;5036859;28;20622;-88
2023/11/06 06:08:54;;;;;;;52.33;47.93;;;9.00;92.30;;;;;;5055318;28;20271;-88
2023/11/06 06:11:20;;;;;;;53.73;49.73;;;9.00;92.20;;;;;;5054636;28;20212;-88
2023/11/06 06:13:46;;;;;;;54.40;50.50;;;9.00;92.20;;;;;;5054302;28;20180;-88
2023/11/06 06:16:12;;;;;;;53.60;49.63;;;9.00;92.30;;;;;;5036640;28;20208;-88
2023/11/06 06:18:37;;;;;;;57.53;53.33;;;9.10;92.10;;;;;;5036771;28;20234;-88
2023/11/06 06:21:03;;;;;;;36.50;33.53;;;9.20;91.80;;;;;;5036627;28;20179;-88
2023/11/06 06:23:28;;;;;;;35.00;32.10;;;9.20;91.70;;;;;;5036706;28;20722;-88
2023/11/06 06:25:54;;;;;;;50.00;46.17;;;9.20;91.80;;;;;;5036430;28;20196;-88
2023/11/06 06:28:19;;;;;;;51.33;47.57;;;9.10;91.90;;;;;;5037354;28;20187;-88
2023/11/06 06:30:45;;;;;;;50.97;47.07;;;9.10;92.00;;;;;;5037568;28;20180;-91
2023/11/06 06:33:11;;;;;;;32.77;30.20;;;9.00;92.10;;;;;;5037574;28;20176;-88
2023/11/06 06:35:36;;;;;;;33.93;31.20;;;9.10;92.00;;;;;;5054076;28;20196;-88
2023/11/06 06:38:02;;;;;;;47.50;43.73;;;9.00;92.10;;;;;;5054053;28;20679;-87
2023/11/06 06:40:27;;;;;;;48.20;44.67;;;9.10;92.00;;;;;;5054102;28;20164;-88
2023/11/06 06:42:53;;;;;;;51.30;47.57;;;9.20;91.90;;;;;;5054122;28;20262;-89
2023/11/06 06:45:18;;;;;;;32.00;29.33;;;9.20;91.80;;;;;;5036272;28;20223;-89
2023/11/06 06:47:44;;;;;;;33.27;30.43;;;9.30;91.50;;;;;;5036216;28;20270;-88
2023/11/06 06:50:10;;;;;;;32.23;29.67;;;9.30;91.40;;;;;;5036236;28;20175;-89
2023/11/06 06:52:35;;;;;;;31.63;28.93;;;9.30;91.40;;;;;;5054029;28;20176;-88
2023/11/06 06:55:01;;;;;;;31.63;28.93;;;9.30;91.20;;;;;;5035846;28;20257;-88
2023/11/06 06:57:26;;;;;;;30.17;28.07;;;9.30;91.00;;;;;;5053279;28;20203;-89
2023/11/06 06:59:52;;;;;;;31.03;28.73;;;9.40;91.00;;;;;;5035919;28;20182;-89
2023/11/06 07:02:17;;;;;;;30.30;27.67;;;9.40;90.90;;;;;;5053898;28;20164;-88
2023/11/06 07:04:44;;;;;;;29.80;27.70;;;9.30;90.90;;;;;;5035808;28;20262;-88
2023/11/06 07:07:10;;;;;;;30.77;28.30;;;9.40;90.80;;;;;;5053739;28;20176;-88
2023/11/06 07:09:36;;;;;;;31.73;29.20;;;9.40;90.70;;;;;;5035914;28;20313;-88
2023/11/06 07:12:03;;;;;;;29.33;26.97;;;9.40;90.80;;;;;;5035927;28;20183;-88
2023/11/06 07:14:29;;;;;;;29.90;27.47;;;9.40;90.80;;;;;;5036082;28;20186;-88
2023/11/06 07:16:57;;;;;;;31.53;29.13;;;9.40;90.80;;;;;;5035711;28;20282;-89
2023/11/06 07:19:24;;;;;;;35.20;32.20;;;9.40;91.00;;;;;;5053712;28;20164;-88
2023/11/06 07:21:50;;;;;;;33.00;30.30;;;9.50;90.90;;;;;;5035975;28;20230;-88
2023/11/06 07:24:15;;;;;;;33.43;30.83;;;9.50;90.90;;;;;;5053924;28;20545;-88
2023/11/06 07:26:41;;;;;;;33.13;30.47;;;9.50;90.90;;;;;;5035817;28;20294;-87
2023/11/06 07:29:06;;;;;;;48.13;44.87;;;9.50;90.80;;;;;;5035673;28;20179;-87
2023/11/06 07:31:32;;;;;;;49.23;45.63;;;9.50;90.60;;;;;;5035615;28;20187;-88
2023/11/06 07:33:57;;;;;;;49.00;45.27;;;9.60;90.70;;;;;;5053395;28;20172;-87
2023/11/06 07:36:23;;;;;;;45.43;42.10;;;9.60;90.60;;;;;;5035303;28;20195;-87
2023/11/06 07:38:48;;;;;;;45.03;41.63;;;9.60;90.50;;;;;;5035258;28;20325;-88
2023/11/06 07:41:14;;;;;;;44.67;41.53;;;9.60;90.50;;;;;;5053482;28;20175;-87
2023/11/06 07:43:40;;;;;;;45.00;41.37;;;9.50;90.50;;;;;;5053185;28;20180;-88
2023/11/06 07:46:05;;;;;;;44.73;40.97;;;9.50;90.60;;;;;;5035490;28;20748;-88
2023/11/06 07:48:31;;;;;;;44.87;41.57;;;9.50;90.70;;;;;;5035485;28;20184;-89
2023/11/06 07:50:57;;;;;;;46.13;43.13;;;9.60;90.60;;;;;;5035246;28;20271;-89
2023/11/06 07:53:23;;;;;;;46.60;43.37;;;9.60;90.70;;;;;;5035165;28;20266;-88
2023/11/06 07:55:48;;;;;;;47.27;43.97;;;9.60;90.80;;;;;;5035097;28;20242;-87
2023/11/06 07:58:14;;;;;;;47.00;43.43;;;9.70;90.70;;;;;;5035847;28;20200;-89
2023/11/06 08:00:43;;;;;;;46.47;43.07;;;9.70;90.60;;;;;;5035125;28;20203;-89
2023/11/06 08:03:09;;;;;;;47.00;43.73;;;9.70;90.60;;;;;;5035282;28;20179;-88
2023/11/06 08:05:36;;;;;;;50.20;46.40;;;9.70;90.80;;;;;;5035099;28;20196;-88
2023/11/06 08:08:03;;;;;;;33.10;30.40;;;9.70;90.90;;;;;;5035387;28;20219;-88
2023/11/06 08:10:31;;;;;;;33.67;30.57;;;9.70;90.70;;;;;;5056893;28;20192;-89
2023/11/06 08:12:57;;;;;;;47.90;44.27;;;9.70;90.90;;;;;;5056749;28;20230;-88
2023/11/06 08:15:23;;;;;;;49.60;45.90;;;9.80;90.90;;;;;;5056735;28;20196;-89
2023/11/06 08:17:48;;;;;;;51.53;47.87;;;9.80;90.80;;;;;;5038783;28;20638;-89
2023/11/06 08:20:14;;;;;;;33.23;30.83;;;9.80;90.90;;;;;;5038766;28;20588;-87
2023/11/06 08:22:39;;;;;;;33.40;30.83;;;9.80;90.90;;;;;;5038751;28;20670;-89
2023/11/06 08:25:05;;;;;;;49.00;45.03;;;9.80;90.90;;;;;;5056506;28;20561;-88
2023/11/06 08:27:32;;;;;;;48.13;44.63;;;9.80;90.90;;;;;;5056493;28;20294;-87
2023/11/06 08:29:58;;;;;;;51.43;47.80;;;9.80;90.80;;;;;;5056383;28;20165;-88
2023/11/06 08:32:24;;;;;;;32.73;30.40;;;9.90;90.70;;;;;;5056382;28;20172;-88
2023/11/06 08:34:49;;;;;;;33.43;30.93;;;9.90;90.70;;;;;;5038474;28;20546;-88
2023/11/06 08:37:15;;;;;;;47.30;43.63;;;9.80;90.50;;;;;;5056170;28;20192;-89
2023/11/06 08:39:45;;;;;;;48.73;45.07;;;9.80;90.60;;;;;;5038559;28;20230;-88
2023/11/06 08:42:14;;;;;;;51.53;47.67;;;9.80;90.50;;;;;;5038705;28;20249;-88
2023/11/06 08:44:42;;;;;;;30.53;28.23;;;9.90;90.40;;;;;;5038358;28;20617;-88
2023/11/06 08:47:11;;;;;;;32.57;29.50;;;10.00;90.50;;;;;;5038453;28;20610;-88
2023/11/06 08:49:37;;;;;;;31.53;29.10;;;10.10;90.10;;;;;;5038318;28;20184;-89
2023/11/06 08:52:03;;;;;;;32.57;30.17;;;10.20;90.20;;;;;;5056213;28;20176;-88
2023/11/06 08:54:30;;;;;;;33.37;30.37;;;10.10;90.00;;;;;;5038927;28;20538;-89
2023/11/06 08:56:57;;;;;;;35.17;32.00;;;10.00;90.10;;;;;;5037994;28;20203;-88
2023/11/06 08:59:22;;;;;;;33.67;31.10;;;10.00;90.20;;;;;;5039003;28;20261;-88
2023/11/06 09:01:48;;;;;;;30.60;28.07;;;10.00;90.10;;;;;;5038001;28;20176;-88
2023/11/06 09:04:15;;;;;;;32.67;29.43;;;10.20;90.10;;;;;;5037932;28;20179;-88
2023/11/06 09:06:40;;;;;;;32.00;29.43;;;10.30;90.10;;;;;;5055781;28;20194;-88
2023/11/06 09:09:10;;;;;;;31.93;29.43;;;10.30;89.80;;;;;;5056153;28;20176;-88
2023/11/06 09:11:38;;;;;;;32.63;30.17;;;10.30;90.10;;;;;;5038033;28;20191;-88
2023/11/06 09:14:03;;;;;;;32.37;29.87;;;10.30;90.20;;;;;;5037788;28;20643;-88
2023/11/06 09:16:33;;;;;;;33.63;30.97;;;10.30;90.00;;;;;;5055815;28;20253;-88
2023/11/06 09:18:59;;;;;;;31.23;28.53;;;10.30;89.80;;;;;;5055198;28;20563;-88
2023/11/06 09:21:24;;;;;;;32.47;29.97;;;10.30;89.80;;;;;;5055538;28;20186;-88
2023/11/06 09:23:50;;;;;;;32.00;29.40;;;10.50;89.90;;;;;;5055618;28;20168;-88
2023/11/06 09:26:15;;;;;;;33.37;30.30;;;10.50;89.80;;;;;;5037589;28;20200;-88
2023/11/06 09:28:41;;;;;;;32.17;29.73;;;10.50;89.60;;;;;;5055520;28;20341;-88
2023/11/06 09:31:07;;;;;;;48.87;44.90;;;10.50;89.50;;;;;;5037486;28;20176;-87
2023/11/06 09:33:32;;;;;;;47.00;43.50;;;10.50;89.30;;;;;;5055262;28;20765;-88
2023/11/06 09:35:58;;;;;;;47.43;43.83;;;10.60;89.20;;;;;;5055225;28;20195;-89
2023/11/06 09:38:23;;;;;;;46.93;43.03;;;10.50;89.00;;;;;;5055339;28;20277;-87
2023/11/06 09:40:49;;;;;;;44.20;40.53;;;10.60;89.00;;;;;;5055773;28;20188;-87
2023/11/06 09:43:16;;;;;;;45.57;41.70;;;10.50;88.90;;;;;;5037229;28;20192;-89
2023/11/06 09:45:41;;;;;;;44.30;40.67;;;10.50;88.80;;;;;;5037165;28;20204;-89
2023/11/06 09:48:09;;;;;;;43.83;40.10;;;10.50;89.00;;;;;;5055220;28;20187;-88
2023/11/06 09:50:37;;;;;;;45.37;41.50;;;10.60;88.90;;;;;;5055162;28;20179;-88
2023/11/06 09:53:04;;;;;;;42.90;39.50;;;10.70;89.00;;;;;;5037193;28;20180;-88
2023/11/06 09:55:29;;;;;;;42.93;39.47;;;10.70;88.60;;;;;;5054888;28;20199;-88
2023/11/06 09:57:56;;;;;;;41.77;38.87;;;10.70;88.30;;;;;;5054876;28;20203;-88
2023/11/06 10:00:22;;;;;;;41.30;37.43;;;10.70;88.20;;;;;;5037111;28;20172;-87
2023/11/06 10:02:49;;;;;;;44.43;40.67;;;10.70;87.70;;;;;;5037023;28;20172;-88
2023/11/06 10:05:16;;;;;;;45.63;42.30;;;10.80;87.60;;;;;;5054856;28;20270;-88
2023/11/06 10:07:45;;;;;;;25.73;23.73;;;10.70;87.40;;;;;;5055077;28;20675;-88
2023/11/06 10:10:22;;;;;;;25.63;23.60;;;10.80;87.40;;;;;;5037179;28;20671;-88
2023/11/06 10:13:01;;;;;;;38.43;35.57;;;10.70;86.80;;;;;;5054881;28;20168;-88
2023/11/06 10:15:27;;;;;;;39.43;36.00;;;10.80;87.30;;;;;;5036605;28;20207;-88
2023/11/06 10:17:53;;;;;;;43.30;40.07;;;10.80;87.00;;;;;;5054903;28;20195;-89
2023/11/06 10:20:25;;;;;;;25.17;23.07;;;10.90;86.70;;;;;;5036791;28;20192;-89
2023/11/06 10:22:53;;;;;;;25.17;22.83;;;10.90;86.70;;;;;;5054633;28;20159;-88
2023/11/06 10:25:30;;;;;;;36.43;33.83;;;10.90;86.80;;;;;;5054511;28;20275;-88
2023/11/06 10:27:56;;;;;;;40.17;37.00;;;10.90;85.70;;;;;;5036748;28;20581;-88
2023/11/06 10:30:23;;;;;;;45.53;42.23;;;11.00;85.90;;;;;;5036607;28;20207;-87
2023/11/06 10:32:49;;;;;;;25.30;22.80;;;11.00;85.60;;;;;;5035771;28;20172;-88
2023/11/06 10:35:17;;;;;;;24.10;22.37;;;11.00;85.50;;;;;;5036204;28;20320;-89
2023/11/06 10:37:44;;;;;;;26.53;24.13;;;11.10;86.00;;;;;;5053965;28;20187;-89
2023/11/06 10:40:17;;;;;;;25.07;22.83;;;11.20;85.70;;;;;;5054233;28;20164;-88
2023/11/06 10:42:48;;;;;;;24.93;22.63;;;11.10;85.50;;;;;;5054158;28;20184;-89
2023/11/06 10:45:18;;;;;;;24.00;21.63;;;11.00;85.70;;;;;;5036112;28;20770;-88
2023/11/06 10:47:53;;;;;;;24.37;22.37;;;10.90;85.70;;;;;;5036135;28;20226;-88
2023/11/06 10:50:20;;;;;;;24.60;22.57;;;10.80;86.10;;;;;;5036127;28;20596;-88
2023/11/06 10:52:54;;;;;;;28.47;22.00;;;10.80;86.70;;;;;;5054289;28;20172;-88
2023/11/06 10:55:24;;;;;;;22.00;20.10;;;10.80;86.20;;;;;;5053889;28;20283;-89
2023/11/06 10:57:54;;;;;;;23.83;21.50;;;10.80;85.70;;;;;;5035654;28;20235;-88
2023/11/06 11:00:20;;;;;;;23.13;21.17;;;10.90;85.20;;;;;;5036780;28;20504;-88
2023/11/06 11:02:55;;;;;;;23.27;21.20;;;10.90;84.70;;;;;;5035786;28;20263;-88
2023/11/06 11:05:24;;;;;;;21.13;19.33;;;10.90;84.20;;;;;;5053595;28;20188;-89
2023/11/06 11:07:51;;;;;;;22.80;20.33;;;10.90;83.90;;;;;;5035979;28;20187;-90
2023/11/06 11:10:19;;;;;;;22.93;20.53;;;10.90;84.80;;;;;;5037068;28;20180;-91
2023/11/06 11:12:46;;;;;;;22.53;20.37;;;10.90;85.30;;;;;;5054863;28;20187;-90
2023/11/06 11:15:12;;;;;;;22.73;20.73;;;10.80;85.10;;;;;;5054042;28;20549;-89
2023/11/06 11:17:38;;;;;;;23.07;20.77;;;10.80;85.30;;;;;;5035921;28;20274;-89
2023/11/06 11:20:07;;;;;;;22.03;20.07;;;10.70;85.50;;;;;;5035678;28;20176;-89
2023/11/06 11:22:52;;;;;;;22.17;20.23;;;10.70;85.40;;;;;;5037018;28;20195;-91
2023/11/06 11:25:54;;;;;;;29.97;27.67;;;10.70;85.60;;;;;;5035193;28;20667;-89
2023/11/06 11:28:19;;;;;;;28.80;26.70;;;10.70;85.70;;;;;;5054115;28;20278;-91
2023/11/06 11:30:45;;;;;;;28.10;25.57;;;10.60;85.90;;;;;;5042191;28;20207;-91
2023/11/06 11:33:11;;;;;;;30.50;27.90;;;10.60;85.90;;;;;;5036915;28;20176;-91
2023/11/06 11:35:36;;;;;;;28.57;26.43;;;10.50;85.70;;;;;;5040439;28;20191;-89
2023/11/06 11:38:02;;;;;;;30.97;28.87;;;10.50;86.40;;;;;;5035228;28;20226;-89
2023/11/06 11:40:40;;;;;;;30.43;28.23;;;10.40;87.10;;;;;;5053093;28;20164;-89
2023/11/06 11:43:24;;;;;;;31.57;29.27;;;10.40;87.50;;;;;;5037182;28;20183;-90
2023/11/06 11:45:50;;;;;;;32.20;29.27;;;10.30;88.00;;;;;;5039174;28;20191;-89
2023/11/06 11:48:16;;;;;;;30.03;27.83;;;10.30;87.90;;;;;;5039341;28;20176;-89
2023/11/06 11:50:46;;;;;;;32.17;29.17;;;10.30;87.90;;;;;;5039577;28;20287;-90
2023/11/06 11:53:36;;;;;;;24.53;22.47;;;10.30;87.80;;;;;;5039328;28;20275;-89
2023/11/06 11:56:02;;;;;;;27.03;23.77;;;10.30;88.40;;;;;;5039197;28;20200;-89
2023/11/06 11:58:28;;;;;;;24.57;22.33;;;10.30;88.40;;;;;;5039183;28;20253;-88
2023/11/06 12:00:57;;;;;;;21.03;18.97;;;10.40;88.20;;;;;;5040994;28;20179;-90
2023/11/06 12:03:24;;;;;;;20.47;18.57;;;10.40;88.20;;;;;;5039032;28;20229;-90
2023/11/06 12:05:57;;;;;;;31.50;29.03;;;10.50;88.30;;;;;;5039213;28;20195;-88
2023/11/06 12:08:26;;;;;;;30.43;27.77;;;10.50;88.20;;;;;;5039554;28;20180;-89
2023/11/06 12:10:53;;;;;;;29.70;27.60;;;10.50;87.90;;;;;;5039015;28;20180;-89
2023/11/06 12:13:22;;;;;;;21.93;19.77;;;10.50;87.80;;;;;;5039196;28;20648;-89
2023/11/06 12:15:49;;;;;;;21.57;19.80;;;10.60;88.40;;;;;;5056670;28;20211;-88
2023/11/06 12:18:16;;;;;;;30.43;27.83;;;10.60;89.00;;;;;;5056564;28;20199;-88
2023/11/06 12:20:44;;;;;;;32.37;29.83;;;10.70;88.50;;;;;;5038565;28;20176;-90
2023/11/06 12:23:10;;;;;;;22.20;19.97;;;10.70;88.40;;;;;;5038675;28;20644;-89
2023/11/06 12:25:37;;;;;;;20.57;18.93;;;10.80;88.30;;;;;;5038632;28;20208;-90
2023/11/06 12:28:10;;;;;;;23.57;21.07;;;10.80;87.30;;;;;;5038667;28;20555;-90
2023/11/06 12:30:38;;;;;;;29.87;27.53;;;10.80;87.10;;;;;;5056394;28;20521;-89